DLH187 EDDK-LEPA
Flight info
| Callsign | DLH187 |
|---|---|
| Flight time | 1h 56m |
| Altitude | 35000 |
| Route | NVO2R NVO Y868 NAVAK Z283 SOPOK DCT ROUSY DCT GTQ DCT POGOL DCT LASAT DCT MOROK DCT GILIR DCT GEVEA DCT INCUS DCT BALSI DCT RETNO DCT TUPOX DCT MTG DCT DIVKO DCT VATIR DCT PIVUS DCT BODEQ DCT VERSO L129 LUNIK |
| Aircraft | A320/M-SDE3FGHIRWY/LB1 |
Departure
| Time | 2026-05-06 14:24 |
|---|---|
| Airport | Cologne Bonn Airport (EDDK) |
Arrival
| Time | 2026-05-06 16:21 |
|---|---|
| Airport | Palma de Mallorca Airport (LEPA) |
| Time | Latitude | Longitude | Altitude | Speed | Heading |
|---|---|---|---|---|---|
| 2026-05-06 13:32 | 50.88222 | 7.11857 | 234 ft | 0 kts | 216° |
| 2026-05-06 14:11 | 50.88223 | 7.11859 | 232 ft | 2 kts | 216° |
| 2026-05-06 14:12 | 50.88245 | 7.11884 | 235 ft | 4 kts | 216° |
| 2026-05-06 14:12 | 50.88262 | 7.11904 | 233 ft | 4 kts | 212° |
| 2026-05-06 14:12 | 50.88280 | 7.11914 | 235 ft | 4 kts | 131° |
| 2026-05-06 14:12 | 50.88296 | 7.11882 | 233 ft | 4 kts | 127° |
| 2026-05-06 14:13 | 50.88299 | 7.11876 | 234 ft | 0 kts | 127° |
| 2026-05-06 14:14 | 50.88297 | 7.11879 | 233 ft | 3 kts | 127° |
| 2026-05-06 14:14 | 50.88277 | 7.11925 | 232 ft | 3 kts | 125° |
| 2026-05-06 14:15 | 50.88254 | 7.11976 | 234 ft | 17 kts | 125° |
| 2026-05-06 14:15 | 50.88165 | 7.12183 | 233 ft | 21 kts | 124° |
| 2026-05-06 14:15 | 50.88092 | 7.12342 | 232 ft | 14 kts | 128° |
| 2026-05-06 14:15 | 50.88046 | 7.12442 | 232 ft | 8 kts | 123° |
| 2026-05-06 14:16 | 50.88019 | 7.12519 | 232 ft | 7 kts | 114° |
| 2026-05-06 14:16 | 50.87997 | 7.12579 | 234 ft | 9 kts | 126° |
| 2026-05-06 14:16 | 50.87884 | 7.12608 | 232 ft | 22 kts | 200° |
| 2026-05-06 14:16 | 50.87778 | 7.12692 | 232 ft | 15 kts | 135° |
| 2026-05-06 14:17 | 50.87711 | 7.12783 | 232 ft | 10 kts | 139° |
| 2026-05-06 14:17 | 50.87673 | 7.12836 | 232 ft | 6 kts | 139° |
| 2026-05-06 14:17 | 50.87618 | 7.12912 | 232 ft | 18 kts | 137° |
| 2026-05-06 14:17 | 50.87478 | 7.13115 | 232 ft | 29 kts | 136° |
| 2026-05-06 14:18 | 50.87343 | 7.13316 | 232 ft | 24 kts | 135° |
| 2026-05-06 14:18 | 50.87233 | 7.13473 | 235 ft | 18 kts | 139° |
| 2026-05-06 14:18 | 50.87150 | 7.13591 | 238 ft | 19 kts | 137° |
| 2026-05-06 14:18 | 50.87046 | 7.13745 | 242 ft | 21 kts | 139° |
| 2026-05-06 14:19 | 50.86939 | 7.13897 | 248 ft | 20 kts | 135° |
| 2026-05-06 14:19 | 50.86842 | 7.14041 | 255 ft | 15 kts | 138° |
| 2026-05-06 14:19 | 50.86717 | 7.14167 | 257 ft | 27 kts | 155° |
| 2026-05-06 14:19 | 50.86559 | 7.14395 | 262 ft | 35 kts | 136° |
| 2026-05-06 14:20 | 50.86372 | 7.14656 | 273 ft | 33 kts | 139° |
| 2026-05-06 14:20 | 50.86219 | 7.14874 | 282 ft | 26 kts | 137° |
| 2026-05-06 14:20 | 50.86108 | 7.15039 | 287 ft | 17 kts | 136° |
| 2026-05-06 14:20 | 50.86039 | 7.15142 | 293 ft | 13 kts | 136° |
| 2026-05-06 14:21 | 50.85920 | 7.15318 | 296 ft | 26 kts | 137° |
| 2026-05-06 14:21 | 50.85803 | 7.15487 | 298 ft | 18 kts | 137° |
| 2026-05-06 14:21 | 50.85721 | 7.15607 | 300 ft | 22 kts | 137° |
| 2026-05-06 14:21 | 50.85554 | 7.15851 | 306 ft | 31 kts | 137° |
| 2026-05-06 14:22 | 50.85406 | 7.16059 | 308 ft | 26 kts | 137° |
| 2026-05-06 14:22 | 50.85337 | 7.16282 | 308 ft | 21 kts | 91° |
| 2026-05-06 14:22 | 50.85399 | 7.16483 | 308 ft | 17 kts | 27° |
| 2026-05-06 14:22 | 50.85502 | 7.16526 | 307 ft | 15 kts | 17° |
| 2026-05-06 14:23 | 50.85556 | 7.16515 | 308 ft | 2 kts | 319° |
| 2026-05-06 14:23 | 50.85585 | 7.16476 | 308 ft | 27 kts | 319° |
| 2026-05-06 14:23 | 50.85898 | 7.16026 | 302 ft | 92 kts | 316° |
| 2026-05-06 14:23 | 50.86497 | 7.15147 | 280 ft | 141 kts | 317° |
| 2026-05-06 14:24 | 50.87311 | 7.13945 | 428 ft | 167 kts | 315° |
| 2026-05-06 14:24 | 50.88125 | 7.12690 | 1238 ft | 161 kts | 316° |
| 2026-05-06 14:24 | 50.88936 | 7.11507 | 2073 ft | 156 kts | 319° |
| 2026-05-06 14:24 | 50.89726 | 7.10390 | 2868 ft | 147 kts | 320° |
| 2026-05-06 14:25 | 50.90429 | 7.09216 | 3442 ft | 153 kts | 306° |
| 2026-05-06 14:25 | 50.90937 | 7.07611 | 3713 ft | 175 kts | 288° |
| 2026-05-06 14:25 | 50.91096 | 7.05579 | 3974 ft | 199 kts | 268° |
| 2026-05-06 14:25 | 50.90757 | 7.03351 | 4356 ft | 214 kts | 252° |
| 2026-05-06 14:26 | 50.90256 | 7.01032 | 4648 ft | 234 kts | 253° |
| 2026-05-06 14:26 | 50.89707 | 6.98450 | 5024 ft | 257 kts | 253° |
| 2026-05-06 14:26 | 50.89113 | 6.95731 | 5792 ft | 264 kts | 248° |
| 2026-05-06 14:26 | 50.88078 | 6.93326 | 6607 ft | 269 kts | 223° |
| 2026-05-06 14:27 | 50.86458 | 6.91836 | 7449 ft | 274 kts | 197° |
| 2026-05-06 14:27 | 50.84557 | 6.91436 | 8277 ft | 278 kts | 186° |
| 2026-05-06 14:27 | 50.82625 | 6.91231 | 9152 ft | 279 kts | 186° |
| 2026-05-06 14:27 | 50.80675 | 6.91032 | 9970 ft | 281 kts | 186° |
| 2026-05-06 14:28 | 50.78663 | 6.90821 | 10332 ft | 301 kts | 186° |
| 2026-05-06 14:28 | 50.76494 | 6.90582 | 10521 ft | 324 kts | 186° |
| 2026-05-06 14:28 | 50.74173 | 6.90321 | 10675 ft | 347 kts | 186° |
| 2026-05-06 14:28 | 50.71705 | 6.90044 | 11037 ft | 360 kts | 186° |
| 2026-05-06 14:29 | 50.69186 | 6.89766 | 11669 ft | 365 kts | 186° |
| 2026-05-06 14:29 | 50.66637 | 6.89490 | 12337 ft | 369 kts | 186° |
| 2026-05-06 14:29 | 50.64062 | 6.89212 | 13007 ft | 373 kts | 186° |
| 2026-05-06 14:29 | 50.61406 | 6.88921 | 13190 ft | 391 kts | 186° |
| 2026-05-06 14:30 | 50.58654 | 6.88617 | 13485 ft | 402 kts | 186° |
| 2026-05-06 14:30 | 50.55845 | 6.88309 | 13956 ft | 407 kts | 186° |
| 2026-05-06 14:30 | 50.53003 | 6.87999 | 14448 ft | 411 kts | 186° |
| 2026-05-06 14:30 | 50.50145 | 6.87684 | 14948 ft | 414 kts | 186° |
| 2026-05-06 14:31 | 50.47264 | 6.87367 | 15463 ft | 416 kts | 186° |
| 2026-05-06 14:31 | 50.44361 | 6.87051 | 15981 ft | 419 kts | 186° |
| 2026-05-06 14:31 | 50.41449 | 6.86738 | 16485 ft | 422 kts | 186° |
| 2026-05-06 14:31 | 50.38509 | 6.86421 | 16999 ft | 424 kts | 186° |
| 2026-05-06 14:32 | 50.35560 | 6.86101 | 17500 ft | 426 kts | 186° |
| 2026-05-06 14:32 | 50.32586 | 6.85779 | 17994 ft | 429 kts | 186° |
| 2026-05-06 14:32 | 50.29603 | 6.85455 | 18420 ft | 431 kts | 186° |
| 2026-05-06 14:32 | 50.26604 | 6.85130 | 18832 ft | 433 kts | 186° |
| 2026-05-06 14:33 | 50.23588 | 6.84805 | 19220 ft | 436 kts | 186° |
| 2026-05-06 14:33 | 50.20557 | 6.84480 | 19621 ft | 438 kts | 186° |
| 2026-05-06 14:33 | 50.17502 | 6.84153 | 20029 ft | 441 kts | 186° |
| 2026-05-06 14:33 | 50.14437 | 6.83826 | 20419 ft | 443 kts | 186° |
| 2026-05-06 14:34 | 50.11351 | 6.83492 | 20807 ft | 445 kts | 186° |
| 2026-05-06 14:34 | 50.08256 | 6.83153 | 21188 ft | 448 kts | 186° |
| 2026-05-06 14:34 | 50.05136 | 6.82812 | 21552 ft | 450 kts | 186° |
| 2026-05-06 14:34 | 50.02006 | 6.82473 | 21897 ft | 453 kts | 186° |
| 2026-05-06 14:35 | 49.98849 | 6.82135 | 22218 ft | 455 kts | 186° |
| 2026-05-06 14:35 | 49.95680 | 6.81799 | 22535 ft | 458 kts | 186° |
| 2026-05-06 14:35 | 49.92496 | 6.81461 | 22850 ft | 461 kts | 186° |
| 2026-05-06 14:35 | 49.89279 | 6.81120 | 23179 ft | 463 kts | 186° |
| 2026-05-06 14:36 | 49.86058 | 6.80778 | 23475 ft | 466 kts | 185° |
| 2026-05-06 14:36 | 49.82812 | 6.80432 | 23742 ft | 468 kts | 185° |
| 2026-05-06 14:36 | 49.79570 | 6.80083 | 24018 ft | 469 kts | 185° |
| 2026-05-06 14:36 | 49.76308 | 6.79732 | 24284 ft | 470 kts | 185° |
| 2026-05-06 14:37 | 49.73046 | 6.79382 | 24565 ft | 471 kts | 185° |
| 2026-05-06 14:37 | 49.69768 | 6.79033 | 24853 ft | 472 kts | 185° |
| 2026-05-06 14:37 | 49.66480 | 6.78689 | 25147 ft | 473 kts | 185° |
| 2026-05-06 14:37 | 49.63212 | 6.78350 | 25566 ft | 471 kts | 185° |
| 2026-05-06 14:38 | 49.59952 | 6.78011 | 26014 ft | 468 kts | 184° |
| 2026-05-06 14:38 | 49.56717 | 6.77623 | 26463 ft | 465 kts | 186° |
| 2026-05-06 14:38 | 49.53515 | 6.77048 | 26918 ft | 463 kts | 188° |
| 2026-05-06 14:38 | 49.50342 | 6.76324 | 27358 ft | 460 kts | 189° |
| 2026-05-06 14:39 | 49.47207 | 6.75527 | 28029 ft | 452 kts | 189° |
| 2026-05-06 14:39 | 49.44142 | 6.74735 | 28933 ft | 441 kts | 189° |
| 2026-05-06 14:39 | 49.41137 | 6.73986 | 29587 ft | 436 kts | 188° |
| 2026-05-06 14:39 | 49.38147 | 6.73279 | 30083 ft | 433 kts | 188° |
| 2026-05-06 14:40 | 49.36179 | 6.72832 | 30340 ft | 432 kts | 188° |
| 2026-05-06 14:40 | 49.33201 | 6.72177 | 30688 ft | 431 kts | 188° |
| 2026-05-06 14:40 | 49.30232 | 6.71535 | 31021 ft | 431 kts | 188° |
| 2026-05-06 14:40 | 49.27227 | 6.70885 | 31360 ft | 431 kts | 188° |
| 2026-05-06 14:41 | 49.24261 | 6.70240 | 31688 ft | 431 kts | 188° |
| 2026-05-06 14:41 | 49.21333 | 6.69597 | 32016 ft | 430 kts | 188° |
| 2026-05-06 14:41 | 49.18332 | 6.68932 | 32357 ft | 430 kts | 188° |
| 2026-05-06 14:41 | 49.15409 | 6.68283 | 32684 ft | 430 kts | 188° |
| 2026-05-06 14:42 | 49.12415 | 6.67615 | 33017 ft | 429 kts | 188° |
| 2026-05-06 14:42 | 49.09496 | 6.66965 | 33349 ft | 429 kts | 188° |
| 2026-05-06 14:42 | 49.06541 | 6.66310 | 33674 ft | 429 kts | 188° |
| 2026-05-06 14:42 | 49.03547 | 6.65651 | 33974 ft | 429 kts | 188° |
| 2026-05-06 14:43 | 49.00629 | 6.65015 | 34235 ft | 429 kts | 188° |
| 2026-05-06 14:43 | 48.97637 | 6.64361 | 34493 ft | 429 kts | 188° |
| 2026-05-06 14:43 | 48.94725 | 6.63722 | 34732 ft | 429 kts | 188° |
| 2026-05-06 14:43 | 48.91720 | 6.63066 | 34818 ft | 431 kts | 188° |
| 2026-05-06 14:44 | 48.85803 | 6.61772 | 34835 ft | 433 kts | 188° |
| 2026-05-06 14:45 | 48.76800 | 6.59810 | 34833 ft | 434 kts | 188° |
| 2026-05-06 14:45 | 48.70822 | 6.58501 | 34834 ft | 434 kts | 188° |
| 2026-05-06 14:46 | 48.64874 | 6.57209 | 34831 ft | 434 kts | 188° |
| 2026-05-06 14:46 | 48.61855 | 6.56559 | 34971 ft | 433 kts | 189° |
| 2026-05-06 14:46 | 48.58867 | 6.55917 | 35212 ft | 433 kts | 189° |
| 2026-05-06 14:46 | 48.55885 | 6.55276 | 35456 ft | 433 kts | 189° |
| 2026-05-06 14:47 | 48.52896 | 6.54632 | 35698 ft | 434 kts | 189° |
| 2026-05-06 14:47 | 48.49907 | 6.53986 | 35812 ft | 434 kts | 189° |
| 2026-05-06 14:47 | 48.46919 | 6.53340 | 35840 ft | 434 kts | 189° |
| 2026-05-06 14:48 | 48.40950 | 6.52054 | 35840 ft | 433 kts | 189° |
| 2026-05-06 14:48 | 48.34974 | 6.50778 | 35844 ft | 433 kts | 189° |
| 2026-05-06 14:49 | 48.29006 | 6.49504 | 35841 ft | 433 kts | 189° |
| 2026-05-06 14:49 | 48.23046 | 6.48225 | 35848 ft | 435 kts | 189° |
| 2026-05-06 14:50 | 48.16976 | 6.46927 | 35857 ft | 444 kts | 189° |
| 2026-05-06 14:50 | 48.10849 | 6.45632 | 35862 ft | 445 kts | 189° |
| 2026-05-06 14:51 | 48.04721 | 6.44344 | 35866 ft | 445 kts | 189° |
| 2026-05-06 14:51 | 47.98588 | 6.43042 | 35867 ft | 445 kts | 189° |
| 2026-05-06 14:52 | 47.92459 | 6.41747 | 35865 ft | 445 kts | 189° |
| 2026-05-06 14:52 | 47.86327 | 6.40460 | 35865 ft | 445 kts | 189° |
| 2026-05-06 14:53 | 47.80201 | 6.39178 | 35866 ft | 445 kts | 189° |
| 2026-05-06 14:53 | 47.74086 | 6.37899 | 35867 ft | 444 kts | 189° |
| 2026-05-06 14:54 | 47.67956 | 6.36618 | 35864 ft | 444 kts | 189° |
| 2026-05-06 14:54 | 47.61828 | 6.35341 | 35870 ft | 444 kts | 189° |
| 2026-05-06 14:55 | 47.55715 | 6.34071 | 35873 ft | 444 kts | 189° |
| 2026-05-06 14:55 | 47.49623 | 6.32817 | 35880 ft | 444 kts | 189° |
| 2026-05-06 14:56 | 47.43462 | 6.31544 | 35890 ft | 444 kts | 189° |
| 2026-05-06 14:56 | 47.37373 | 6.30279 | 35894 ft | 444 kts | 189° |
| 2026-05-06 14:57 | 47.31260 | 6.29016 | 35896 ft | 444 kts | 189° |
| 2026-05-06 14:57 | 47.25144 | 6.27766 | 35901 ft | 443 kts | 189° |
| 2026-05-06 14:58 | 47.19028 | 6.26519 | 35909 ft | 444 kts | 189° |
| 2026-05-06 14:58 | 47.12908 | 6.25266 | 35913 ft | 444 kts | 189° |
| 2026-05-06 14:59 | 47.06797 | 6.24021 | 35914 ft | 443 kts | 189° |
| 2026-05-06 14:59 | 47.00637 | 6.22998 | 35918 ft | 443 kts | 187° |
| 2026-05-06 15:00 | 46.94525 | 6.22261 | 35919 ft | 443 kts | 186° |
| 2026-05-06 15:00 | 46.88373 | 6.21533 | 35924 ft | 443 kts | 187° |
| 2026-05-06 15:01 | 46.82245 | 6.20729 | 35919 ft | 441 kts | 187° |
| 2026-05-06 15:01 | 46.76219 | 6.19915 | 35919 ft | 431 kts | 187° |
| 2026-05-06 15:02 | 46.70261 | 6.19113 | 35932 ft | 430 kts | 187° |
| 2026-05-06 15:02 | 46.64277 | 6.18323 | 35931 ft | 429 kts | 187° |
| 2026-05-06 15:03 | 46.58327 | 6.17541 | 35931 ft | 429 kts | 187° |
| 2026-05-06 15:03 | 46.52381 | 6.16763 | 35935 ft | 429 kts | 187° |
| 2026-05-06 15:04 | 46.46446 | 6.15989 | 35940 ft | 429 kts | 187° |
| 2026-05-06 15:04 | 46.40499 | 6.15204 | 35941 ft | 428 kts | 187° |
| 2026-05-06 15:05 | 46.34563 | 6.14422 | 35938 ft | 428 kts | 187° |
| 2026-05-06 15:05 | 46.28634 | 6.13649 | 35945 ft | 428 kts | 187° |
| 2026-05-06 15:06 | 46.22708 | 6.12791 | 35943 ft | 427 kts | 189° |
| 2026-05-06 15:06 | 46.16834 | 6.11490 | 35942 ft | 426 kts | 192° |
| 2026-05-06 15:07 | 46.10988 | 6.10044 | 35939 ft | 426 kts | 192° |
| 2026-05-06 15:07 | 46.05131 | 6.08687 | 35940 ft | 427 kts | 191° |
| 2026-05-06 15:08 | 45.99263 | 6.07406 | 35938 ft | 426 kts | 191° |
| 2026-05-06 15:08 | 45.93407 | 6.06134 | 35942 ft | 426 kts | 191° |
| 2026-05-06 15:09 | 45.87544 | 6.04847 | 35941 ft | 425 kts | 191° |
| 2026-05-06 15:09 | 45.81703 | 6.03555 | 35944 ft | 425 kts | 191° |
| 2026-05-06 15:10 | 45.75857 | 6.02257 | 35920 ft | 424 kts | 191° |
| 2026-05-06 15:10 | 45.70019 | 6.00975 | 35916 ft | 424 kts | 191° |
| 2026-05-06 15:11 | 45.64194 | 5.99687 | 36182 ft | 423 kts | 192° |
| 2026-05-06 15:11 | 45.61292 | 5.99046 | 36429 ft | 422 kts | 192° |
| 2026-05-06 15:11 | 45.58391 | 5.98410 | 36680 ft | 422 kts | 192° |
| 2026-05-06 15:11 | 45.55482 | 5.97773 | 36869 ft | 423 kts | 192° |
| 2026-05-06 15:12 | 45.52567 | 5.97139 | 36914 ft | 424 kts | 192° |
| 2026-05-06 15:12 | 45.46738 | 5.95840 | 36923 ft | 424 kts | 193° |
| 2026-05-06 15:13 | 45.40965 | 5.94150 | 36927 ft | 423 kts | 195° |
| 2026-05-06 15:13 | 45.35241 | 5.92225 | 36930 ft | 422 kts | 196° |
| 2026-05-06 15:14 | 45.29508 | 5.90359 | 36933 ft | 422 kts | 195° |
| 2026-05-06 15:14 | 45.23809 | 5.88588 | 36941 ft | 422 kts | 195° |
| 2026-05-06 15:15 | 45.18069 | 5.86822 | 36939 ft | 422 kts | 195° |
| 2026-05-06 15:15 | 45.12302 | 5.85049 | 36934 ft | 421 kts | 195° |
| 2026-05-06 15:16 | 45.06613 | 5.83292 | 36931 ft | 421 kts | 195° |
| 2026-05-06 15:16 | 45.00898 | 5.81537 | 36926 ft | 420 kts | 195° |
| 2026-05-06 15:17 | 44.95181 | 5.79774 | 36930 ft | 420 kts | 195° |
| 2026-05-06 15:17 | 44.89474 | 5.78014 | 36927 ft | 420 kts | 195° |
| 2026-05-06 15:18 | 44.84688 | 5.76545 | 36927 ft | 419 kts | 195° |
| 2026-05-06 15:18 | 44.78997 | 5.74797 | 36923 ft | 419 kts | 195° |
| 2026-05-06 15:19 | 44.73297 | 5.73063 | 36924 ft | 419 kts | 195° |
| 2026-05-06 15:19 | 44.67606 | 5.71330 | 36919 ft | 418 kts | 195° |
| 2026-05-06 15:20 | 44.61925 | 5.69596 | 36921 ft | 418 kts | 195° |
| 2026-05-06 15:20 | 44.56245 | 5.67871 | 36913 ft | 417 kts | 195° |
| 2026-05-06 15:21 | 44.50568 | 5.66157 | 36914 ft | 418 kts | 195° |
| 2026-05-06 15:21 | 44.44892 | 5.64436 | 36909 ft | 417 kts | 195° |
| 2026-05-06 15:22 | 44.39227 | 5.62718 | 36906 ft | 416 kts | 197° |
| 2026-05-06 15:22 | 44.33805 | 5.60046 | 36902 ft | 413 kts | 204° |
| 2026-05-06 15:23 | 44.28460 | 5.57116 | 36893 ft | 413 kts | 204° |
| 2026-05-06 15:23 | 44.23147 | 5.54212 | 36893 ft | 413 kts | 204° |
| 2026-05-06 15:24 | 44.17790 | 5.51293 | 36891 ft | 413 kts | 204° |
| 2026-05-06 15:24 | 44.12434 | 5.48378 | 36890 ft | 413 kts | 204° |
| 2026-05-06 15:25 | 44.07087 | 5.45467 | 36894 ft | 413 kts | 204° |
| 2026-05-06 15:25 | 44.01740 | 5.42557 | 36893 ft | 413 kts | 204° |
| 2026-05-06 15:26 | 43.96390 | 5.39661 | 36892 ft | 413 kts | 204° |
| 2026-05-06 15:26 | 43.91042 | 5.36773 | 36892 ft | 412 kts | 205° |
| 2026-05-06 15:27 | 43.85699 | 5.33883 | 36898 ft | 412 kts | 205° |
| 2026-05-06 15:27 | 43.80356 | 5.31006 | 36904 ft | 412 kts | 205° |
| 2026-05-06 15:28 | 43.74980 | 5.28110 | 36904 ft | 411 kts | 205° |
| 2026-05-06 15:28 | 43.69644 | 5.25240 | 36904 ft | 411 kts | 205° |
| 2026-05-06 15:29 | 43.64344 | 5.22400 | 36910 ft | 411 kts | 205° |
| 2026-05-06 15:29 | 43.59016 | 5.19552 | 36910 ft | 411 kts | 205° |
| 2026-05-06 15:30 | 43.53659 | 5.16693 | 36913 ft | 410 kts | 205° |
| 2026-05-06 15:30 | 43.48369 | 5.13871 | 36912 ft | 410 kts | 205° |
| 2026-05-06 15:31 | 43.43052 | 5.11039 | 36914 ft | 410 kts | 205° |
| 2026-05-06 15:31 | 43.37853 | 5.07911 | 36914 ft | 405 kts | 214° |
| 2026-05-06 15:32 | 43.30894 | 5.01368 | 36907 ft | 404 kts | 217° |
| 2026-05-06 15:32 | 43.26248 | 4.97005 | 36907 ft | 404 kts | 217° |
| 2026-05-06 15:33 | 43.21606 | 4.92659 | 36906 ft | 404 kts | 217° |
| 2026-05-06 15:33 | 43.16930 | 4.88278 | 36905 ft | 404 kts | 217° |
| 2026-05-06 15:34 | 43.12321 | 4.83964 | 36917 ft | 404 kts | 217° |
| 2026-05-06 15:34 | 43.07641 | 4.79592 | 36915 ft | 404 kts | 217° |
| 2026-05-06 15:35 | 43.02838 | 4.75582 | 36916 ft | 406 kts | 212° |
| 2026-05-06 15:35 | 42.97930 | 4.71858 | 36918 ft | 406 kts | 212° |
| 2026-05-06 15:36 | 42.92988 | 4.68115 | 36868 ft | 407 kts | 212° |
| 2026-05-06 15:36 | 42.90504 | 4.66238 | 36602 ft | 407 kts | 212° |
| 2026-05-06 15:36 | 42.88032 | 4.64371 | 36352 ft | 406 kts | 212° |
| 2026-05-06 15:37 | 42.85530 | 4.62486 | 36099 ft | 406 kts | 212° |
| 2026-05-06 15:37 | 42.83088 | 4.60645 | 35848 ft | 405 kts | 212° |
| 2026-05-06 15:37 | 42.80595 | 4.58764 | 35596 ft | 404 kts | 212° |
| 2026-05-06 15:37 | 42.78175 | 4.56940 | 35352 ft | 403 kts | 212° |
| 2026-05-06 15:38 | 42.75692 | 4.55070 | 35109 ft | 402 kts | 212° |
| 2026-05-06 15:38 | 42.73244 | 4.53226 | 34927 ft | 401 kts | 212° |
| 2026-05-06 15:38 | 42.68373 | 4.49564 | 34941 ft | 400 kts | 212° |
| 2026-05-06 15:39 | 42.63495 | 4.45916 | 34943 ft | 400 kts | 212° |
| 2026-05-06 15:39 | 42.58616 | 4.42268 | 34945 ft | 400 kts | 212° |
| 2026-05-06 15:40 | 42.53776 | 4.38643 | 34948 ft | 399 kts | 212° |
| 2026-05-06 15:40 | 42.48910 | 4.35016 | 34944 ft | 399 kts | 212° |
| 2026-05-06 15:41 | 42.44046 | 4.31400 | 34940 ft | 399 kts | 212° |
| 2026-05-06 15:41 | 42.39147 | 4.27764 | 34937 ft | 398 kts | 212° |
| 2026-05-06 15:42 | 42.34291 | 4.24169 | 34939 ft | 398 kts | 212° |
| 2026-05-06 15:42 | 42.29458 | 4.20592 | 34936 ft | 398 kts | 212° |
| 2026-05-06 15:43 | 42.24604 | 4.16995 | 34931 ft | 398 kts | 212° |
| 2026-05-06 15:43 | 42.19751 | 4.13419 | 34937 ft | 398 kts | 212° |
| 2026-05-06 15:44 | 42.14887 | 4.09849 | 34944 ft | 398 kts | 212° |
| 2026-05-06 15:44 | 42.10033 | 4.06288 | 34934 ft | 398 kts | 212° |
| 2026-05-06 15:45 | 42.05178 | 4.02723 | 34937 ft | 397 kts | 212° |
| 2026-05-06 15:45 | 42.00320 | 3.99160 | 34931 ft | 398 kts | 212° |
| 2026-05-06 15:46 | 41.95463 | 3.95618 | 34929 ft | 398 kts | 212° |
| 2026-05-06 15:46 | 41.90285 | 3.92878 | 34925 ft | 407 kts | 197° |
| 2026-05-06 15:47 | 41.84676 | 3.91577 | 34923 ft | 409 kts | 195° |
| 2026-05-06 15:47 | 41.79067 | 3.90287 | 34926 ft | 409 kts | 196° |
| 2026-05-06 15:48 | 41.73453 | 3.88993 | 34925 ft | 409 kts | 196° |
| 2026-05-06 15:48 | 41.67835 | 3.87704 | 34927 ft | 409 kts | 196° |
| 2026-05-06 15:49 | 41.62211 | 3.86415 | 34927 ft | 410 kts | 196° |
| 2026-05-06 15:49 | 41.56593 | 3.85126 | 34929 ft | 410 kts | 196° |
| 2026-05-06 15:50 | 41.50976 | 3.83835 | 34925 ft | 410 kts | 196° |
| 2026-05-06 15:50 | 41.45349 | 3.82543 | 34928 ft | 410 kts | 196° |
| 2026-05-06 15:51 | 41.39722 | 3.81255 | 34922 ft | 410 kts | 196° |
| 2026-05-06 15:51 | 41.34093 | 3.79974 | 34924 ft | 410 kts | 196° |
| 2026-05-06 15:52 | 41.28465 | 3.78698 | 34924 ft | 410 kts | 196° |
| 2026-05-06 15:52 | 41.22843 | 3.77424 | 34925 ft | 410 kts | 196° |
| 2026-05-06 15:53 | 41.17208 | 3.76143 | 34926 ft | 410 kts | 196° |
| 2026-05-06 15:53 | 41.11840 | 3.73929 | 34676 ft | 402 kts | 207° |
| 2026-05-06 15:54 | 41.09237 | 3.72573 | 34437 ft | 402 kts | 207° |
| 2026-05-06 15:54 | 41.06639 | 3.71225 | 34196 ft | 401 kts | 207° |
| 2026-05-06 15:54 | 41.04037 | 3.69879 | 33954 ft | 401 kts | 207° |
| 2026-05-06 15:54 | 41.01436 | 3.68540 | 33697 ft | 401 kts | 207° |
| 2026-05-06 15:55 | 40.98836 | 3.67207 | 33410 ft | 401 kts | 206° |
| 2026-05-06 15:55 | 40.96234 | 3.65875 | 33133 ft | 402 kts | 206° |
| 2026-05-06 15:55 | 40.93620 | 3.64535 | 32861 ft | 402 kts | 206° |
| 2026-05-06 15:55 | 40.91007 | 3.63196 | 32591 ft | 403 kts | 206° |
| 2026-05-06 15:56 | 40.89273 | 3.62305 | 32407 ft | 404 kts | 206° |
| 2026-05-06 15:56 | 40.86654 | 3.60957 | 32151 ft | 405 kts | 206° |
| 2026-05-06 15:56 | 40.84030 | 3.59613 | 31887 ft | 405 kts | 206° |
| 2026-05-06 15:56 | 40.81393 | 3.58268 | 31633 ft | 406 kts | 206° |
| 2026-05-06 15:57 | 40.78749 | 3.56919 | 31377 ft | 407 kts | 206° |
| 2026-05-06 15:57 | 40.76102 | 3.55568 | 31128 ft | 408 kts | 206° |
| 2026-05-06 15:57 | 40.73454 | 3.54216 | 30675 ft | 407 kts | 206° |
| 2026-05-06 15:57 | 40.70806 | 3.52865 | 29771 ft | 409 kts | 206° |
| 2026-05-06 15:58 | 40.68135 | 3.51500 | 28662 ft | 413 kts | 206° |
| 2026-05-06 15:58 | 40.65439 | 3.50130 | 27531 ft | 418 kts | 205° |
| 2026-05-06 15:58 | 40.62710 | 3.48746 | 26389 ft | 422 kts | 205° |
| 2026-05-06 15:58 | 40.59955 | 3.47349 | 25232 ft | 427 kts | 205° |
| 2026-05-06 15:59 | 40.57160 | 3.45930 | 24061 ft | 433 kts | 205° |
| 2026-05-06 15:59 | 40.54348 | 3.44505 | 23178 ft | 431 kts | 205° |
| 2026-05-06 15:59 | 40.51558 | 3.43095 | 22285 ft | 427 kts | 205° |
| 2026-05-06 15:59 | 40.48795 | 3.41701 | 21478 ft | 424 kts | 205° |
| 2026-05-06 16:00 | 40.46027 | 3.40366 | 21063 ft | 426 kts | 200° |
| 2026-05-06 16:00 | 40.43112 | 3.39568 | 20897 ft | 431 kts | 191° |
| 2026-05-06 16:00 | 40.40105 | 3.39447 | 20692 ft | 432 kts | 183° |
| 2026-05-06 16:00 | 40.37134 | 3.39318 | 19927 ft | 423 kts | 192° |
| 2026-05-06 16:01 | 40.34238 | 3.38730 | 19186 ft | 419 kts | 193° |
| 2026-05-06 16:01 | 40.31364 | 3.38126 | 18490 ft | 417 kts | 193° |
| 2026-05-06 16:01 | 40.28512 | 3.37519 | 17764 ft | 414 kts | 193° |
| 2026-05-06 16:01 | 40.25687 | 3.36917 | 17028 ft | 411 kts | 193° |
| 2026-05-06 16:02 | 40.22873 | 3.36326 | 16327 ft | 408 kts | 192° |
| 2026-05-06 16:02 | 40.20067 | 3.35747 | 15998 ft | 408 kts | 192° |
| 2026-05-06 16:02 | 40.17266 | 3.35172 | 15924 ft | 408 kts | 192° |
| 2026-05-06 16:02 | 40.14472 | 3.34596 | 15675 ft | 404 kts | 192° |
| 2026-05-06 16:03 | 40.11703 | 3.34030 | 14995 ft | 401 kts | 192° |
| 2026-05-06 16:03 | 40.08956 | 3.33472 | 14331 ft | 398 kts | 192° |
| 2026-05-06 16:03 | 40.06231 | 3.32916 | 13693 ft | 395 kts | 192° |
| 2026-05-06 16:03 | 40.03518 | 3.32358 | 12979 ft | 392 kts | 192° |
| 2026-05-06 16:04 | 40.00835 | 3.31807 | 12284 ft | 389 kts | 192° |
| 2026-05-06 16:04 | 39.98183 | 3.31262 | 11663 ft | 385 kts | 191° |
| 2026-05-06 16:04 | 39.95533 | 3.30718 | 11123 ft | 385 kts | 191° |
| 2026-05-06 16:04 | 39.92875 | 3.30171 | 10938 ft | 386 kts | 191° |
| 2026-05-06 16:05 | 39.90218 | 3.29627 | 10939 ft | 387 kts | 191° |
| 2026-05-06 16:05 | 39.87556 | 3.29086 | 10941 ft | 386 kts | 191° |
| 2026-05-06 16:05 | 39.84929 | 3.28552 | 10589 ft | 378 kts | 191° |
| 2026-05-06 16:05 | 39.82387 | 3.28037 | 10457 ft | 360 kts | 191° |
| 2026-05-06 16:06 | 39.79965 | 3.27547 | 10336 ft | 344 kts | 191° |
| 2026-05-06 16:06 | 39.77657 | 3.27079 | 10207 ft | 328 kts | 191° |
| 2026-05-06 16:06 | 39.75477 | 3.26636 | 9966 ft | 307 kts | 191° |
| 2026-05-06 16:06 | 39.73432 | 3.26220 | 9683 ft | 290 kts | 191° |
| 2026-05-06 16:07 | 39.71447 | 3.25815 | 9406 ft | 286 kts | 191° |
| 2026-05-06 16:07 | 39.69490 | 3.25416 | 9108 ft | 283 kts | 191° |
| 2026-05-06 16:07 | 39.67548 | 3.25020 | 8822 ft | 282 kts | 191° |
| 2026-05-06 16:07 | 39.65671 | 3.24389 | 8538 ft | 278 kts | 207° |
| 2026-05-06 16:08 | 39.64130 | 3.22935 | 8256 ft | 274 kts | 230° |
| 2026-05-06 16:08 | 39.63098 | 3.20881 | 8049 ft | 272 kts | 242° |
| 2026-05-06 16:08 | 39.62179 | 3.18730 | 8001 ft | 273 kts | 241° |
| 2026-05-06 16:08 | 39.61248 | 3.16573 | 8000 ft | 274 kts | 241° |
| 2026-05-06 16:09 | 39.60316 | 3.14422 | 8001 ft | 273 kts | 241° |
| 2026-05-06 16:09 | 39.59385 | 3.12272 | 8009 ft | 273 kts | 241° |
| 2026-05-06 16:09 | 39.58454 | 3.10123 | 8008 ft | 274 kts | 241° |
| 2026-05-06 16:09 | 39.57523 | 3.07981 | 8009 ft | 273 kts | 241° |
| 2026-05-06 16:10 | 39.56588 | 3.05828 | 7997 ft | 273 kts | 241° |
| 2026-05-06 16:10 | 39.55656 | 3.03682 | 8004 ft | 273 kts | 241° |
| 2026-05-06 16:10 | 39.54725 | 3.01532 | 8011 ft | 273 kts | 241° |
| 2026-05-06 16:10 | 39.53794 | 2.99385 | 8002 ft | 273 kts | 241° |
| 2026-05-06 16:11 | 39.52864 | 2.97247 | 8005 ft | 272 kts | 241° |
| 2026-05-06 16:11 | 39.51937 | 2.95121 | 7805 ft | 270 kts | 241° |
| 2026-05-06 16:11 | 39.51014 | 2.93002 | 7409 ft | 269 kts | 241° |
| 2026-05-06 16:11 | 39.50100 | 2.90902 | 7011 ft | 268 kts | 241° |
| 2026-05-06 16:12 | 39.49184 | 2.88799 | 6620 ft | 267 kts | 241° |
| 2026-05-06 16:12 | 39.48271 | 2.86712 | 6225 ft | 266 kts | 241° |
| 2026-05-06 16:12 | 39.47358 | 2.84629 | 5799 ft | 266 kts | 241° |
| 2026-05-06 16:12 | 39.46446 | 2.82549 | 5384 ft | 265 kts | 241° |
| 2026-05-06 16:13 | 39.45541 | 2.80481 | 5044 ft | 262 kts | 241° |
| 2026-05-06 16:13 | 39.44639 | 2.78415 | 5005 ft | 264 kts | 241° |
| 2026-05-06 16:13 | 39.43795 | 2.76302 | 5005 ft | 265 kts | 249° |
| 2026-05-06 16:13 | 39.43179 | 2.74071 | 4772 ft | 263 kts | 252° |
| 2026-05-06 16:14 | 39.42604 | 2.71834 | 4337 ft | 262 kts | 252° |
| 2026-05-06 16:14 | 39.42041 | 2.69600 | 4024 ft | 260 kts | 254° |
| 2026-05-06 16:14 | 39.41681 | 2.67293 | 4005 ft | 262 kts | 261° |
| 2026-05-06 16:14 | 39.41416 | 2.64963 | 4007 ft | 262 kts | 262° |
| 2026-05-06 16:15 | 39.41160 | 2.62627 | 4004 ft | 263 kts | 262° |
| 2026-05-06 16:15 | 39.40906 | 2.60288 | 4009 ft | 263 kts | 262° |
| 2026-05-06 16:15 | 39.40653 | 2.57946 | 4006 ft | 263 kts | 262° |
| 2026-05-06 16:15 | 39.40401 | 2.55610 | 4002 ft | 263 kts | 262° |
| 2026-05-06 16:16 | 39.40211 | 2.53239 | 4008 ft | 276 kts | 272° |
| 2026-05-06 16:16 | 39.40739 | 2.50698 | 4007 ft | 309 kts | 297° |
| 2026-05-06 16:16 | 39.42087 | 2.48591 | 3957 ft | 297 kts | 322° |
| 2026-05-06 16:16 | 39.43858 | 2.47527 | 3824 ft | 271 kts | 349° |
| 2026-05-06 16:17 | 39.45637 | 2.47658 | 3671 ft | 249 kts | 19° |
| 2026-05-06 16:17 | 39.47132 | 2.48642 | 3437 ft | 236 kts | 31° |
| 2026-05-06 16:17 | 39.48492 | 2.49746 | 3171 ft | 233 kts | 32° |
| 2026-05-06 16:17 | 39.49821 | 2.50935 | 2864 ft | 232 kts | 44° |
| 2026-05-06 16:18 | 39.50608 | 2.52746 | 2553 ft | 232 kts | 82° |
| 2026-05-06 16:18 | 39.50674 | 2.54824 | 2204 ft | 230 kts | 89° |
| 2026-05-06 16:18 | 39.50717 | 2.56914 | 1829 ft | 233 kts | 89° |
| 2026-05-06 16:18 | 39.50763 | 2.59020 | 1509 ft | 233 kts | 89° |
| 2026-05-06 16:19 | 39.50807 | 2.61056 | 1497 ft | 219 kts | 89° |
| 2026-05-06 16:19 | 39.51058 | 2.62939 | 1416 ft | 209 kts | 69° |
| 2026-05-06 16:19 | 39.51682 | 2.64621 | 1196 ft | 208 kts | 60° |
| 2026-05-06 16:19 | 39.52408 | 2.66205 | 953 ft | 197 kts | 58° |
| 2026-05-06 16:20 | 39.53101 | 2.67668 | 671 ft | 183 kts | 59° |
| 2026-05-06 16:20 | 39.53744 | 2.69024 | 421 ft | 171 kts | 58° |
| 2026-05-06 16:20 | 39.54337 | 2.70274 | 235 ft | 154 kts | 58° |
| 2026-05-06 16:20 | 39.54872 | 2.71405 | 25 ft | 139 kts | 58° |
| 2026-05-06 16:21 | 39.55179 | 2.72043 | 25 ft | 43 kts | 58° |
| 2026-05-06 16:21 | 39.55275 | 2.72335 | 20 ft | 25 kts | 117° |
| 2026-05-06 16:21 | 39.55178 | 2.72409 | 21 ft | 0 kts | 143° |
| 2026-05-06 16:22 | 39.55147 | 2.72466 | 23 ft | 0 kts | 114° |
| 2026-05-06 16:24 | 39.55145 | 2.72472 | 23 ft | 5 kts | 110° |
| 2026-05-06 16:24 | 39.55211 | 2.72574 | 21 ft | 23 kts | 51° |
| 2026-05-06 16:24 | 39.55295 | 2.72744 | 21 ft | 23 kts | 60° |
| 2026-05-06 16:24 | 39.55376 | 2.72925 | 22 ft | 23 kts | 59° |
| 2026-05-06 16:25 | 39.55460 | 2.73100 | 20 ft | 23 kts | 58° |
| 2026-05-06 16:25 | 39.55544 | 2.73275 | 20 ft | 23 kts | 58° |
| 2026-05-06 16:25 | 39.55620 | 2.73439 | 21 ft | 19 kts | 60° |
| 2026-05-06 16:25 | 39.55587 | 2.73522 | 19 ft | 9 kts | 151° |
| 2026-05-06 16:26 | 39.55530 | 2.73567 | 20 ft | 10 kts | 154° |
| 2026-05-06 16:26 | 39.55481 | 2.73532 | 20 ft | 10 kts | 235° |
| 2026-05-06 16:26 | 39.55422 | 2.73443 | 21 ft | 12 kts | 185° |
| 2026-05-06 16:26 | 39.55352 | 2.73495 | 21 ft | 16 kts | 147° |
| 2026-05-06 16:27 | 39.55222 | 2.73607 | 23 ft | 25 kts | 148° |
| 2026-05-06 16:27 | 39.55174 | 2.73640 | 24 ft | 2 kts | 158° |
| 2026-05-06 16:27 | 39.55134 | 2.73607 | 25 ft | 7 kts | 239° |
| 2026-05-06 16:27 | 39.55132 | 2.73602 | 25 ft | 0 kts | 239° |
| 2026-05-06 16:28 | 39.55130 | 2.73598 | 27 ft | 4 kts | 239° |
| 2026-05-06 16:28 | 39.55108 | 2.73551 | 25 ft | 6 kts | 238° |
| 2026-05-06 16:28 | 39.55083 | 2.73530 | 27 ft | 3 kts | 178° |
| 2026-05-06 16:28 | 39.55068 | 2.73534 | 26 ft | 1 kts | 170° |
| 2026-05-06 16:29 | 39.55048 | 2.73536 | 26 ft | 2 kts | 160° |
| 2026-05-06 16:29 | 39.55046 | 2.73537 | 26 ft | 1 kts | 156° |
| 2026-05-06 16:29 | 39.55042 | 2.73539 | 26 ft | 0 kts | 159° |